Time;durP1;ratioP1;P1;durP2;ratioP2;P2;SDS_P1;SDS_P2;PMS_P1;PMS_P2;Temp;Humidity;BMP_temperature;BMP_pressure;BME280_temperature;BME280_humidity;BME280_pressure;Samples;Min_cycle;Max_cycle;Signal;HPM_P1;HPM_P2
2021/09/02 00:00:55;;;;;;;7.43;5.87;;;;;;;;;;5050775;28;20196;-77
2021/09/02 00:03:22;;;;;;;6.43;5.53;;;;;;;;;;5050630;28;20238;-78
2021/09/02 00:05:50;;;;;;;5.97;5.37;;;;;;;;;;5032810;28;20265;-79
2021/09/02 00:08:17;;;;;;;7.53;5.60;;;;;;;;;;5050622;28;20242;-77
2021/09/02 00:10:44;;;;;;;6.23;5.57;;;;;;;;;;5050536;28;20243;-78
2021/09/02 00:13:10;;;;;;;7.57;6.00;;;;;;;;;;5033011;28;20261;-77
2021/09/02 00:15:37;;;;;;;7.60;5.87;;;;;;;;;;5036312;28;20234;-77
2021/09/02 00:18:04;;;;;;;7.00;5.70;;;;;;;;;;5054302;28;20246;-78
2021/09/02 00:20:30;;;;;;;7.07;5.97;;;;;;;;;;5036279;28;20667;-77
2021/09/02 00:22:58;;;;;;;5.90;5.27;;;;;;;;;;5054305;28;20210;-77
2021/09/02 00:25:25;;;;;;;9.03;5.93;;;;;;;;;;5054129;28;20238;-77
2021/09/02 00:27:52;;;;;;;7.80;5.83;;;;;;;;;;5032667;28;20290;-77
2021/09/02 00:30:18;;;;;;;7.37;5.60;;;;;;;;;;5034200;28;20200;-78
2021/09/02 00:32:45;;;;;;;9.50;6.70;;;;;;;;;;5034254;28;20235;-78
2021/09/02 00:35:12;;;;;;;10.80;6.00;;;;;;;;;;5032571;28;20204;-77
2021/09/02 00:37:39;;;;;;;9.70;6.20;;;;;;;;;;5033969;28;20245;-78
2021/09/02 00:40:07;;;;;;;7.37;5.80;;;;;;;;;;5034111;28;20240;-79
2021/09/02 00:42:34;;;;;;;9.63;6.33;;;;;;;;;;5032304;28;20236;-78
2021/09/02 00:45:01;;;;;;;7.57;6.70;;;;;;;;;;5033930;28;20216;-78
2021/09/02 00:47:27;;;;;;;8.10;6.47;;;;;;;;;;5034038;28;20240;-79
2021/09/02 00:49:54;;;;;;;7.17;6.23;;;;;;;;;;5032176;28;20256;-77
2021/09/02 00:52:22;;;;;;;7.80;6.00;;;;;;;;;;5031964;28;20250;-78
2021/09/02 00:54:49;;;;;;;9.33;6.17;;;;;;;;;;5033956;28;20219;-78
2021/09/02 00:57:18;;;;;;;7.70;6.10;;;;;;;;;;5031960;28;20607;-77
2021/09/02 00:59:46;;;;;;;8.93;6.50;;;;;;;;;;5033713;28;20204;-78
2021/09/02 01:02:12;;;;;;;7.23;6.30;;;;;;;;;;5033711;28;20240;-77
2021/09/02 01:04:39;;;;;;;6.20;5.70;;;;;;;;;;5031825;28;20219;-78
2021/09/02 01:07:06;;;;;;;10.57;6.43;;;;;;;;;;5032102;28;20200;-77
2021/09/02 01:09:33;;;;;;;9.63;6.30;;;;;;;;;;5033341;28;20215;-79
2021/09/02 01:12:00;;;;;;;8.20;6.10;;;;;;;;;;5033303;28;20564;-77
2021/09/02 01:14:28;;;;;;;6.93;6.33;;;;;;;;;;5033120;28;20254;-79
2021/09/02 01:16:56;;;;;;;6.80;6.20;;;;;;;;;;5031640;28;20258;-78
2021/09/02 01:19:22;;;;;;;7.50;6.20;;;;;;;;;;5033477;28;20216;-77
2021/09/02 01:21:49;;;;;;;7.00;6.30;;;;;;;;;;5033234;28;20204;-78
2021/09/02 01:24:17;;;;;;;7.57;6.63;;;;;;;;;;5032903;28;20629;-78
2021/09/02 01:26:44;;;;;;;8.27;6.13;;;;;;;;;;5030782;28;20208;-77
2021/09/02 01:29:11;;;;;;;9.03;6.50;;;;;;;;;;5031538;28;20321;-77
2021/09/02 01:31:38;;;;;;;10.60;6.80;;;;;;;;;;5033191;28;20489;-77
2021/09/02 01:34:05;;;;;;;7.57;6.10;;;;;;;;;;5032701;28;20580;-77
2021/09/02 01:36:32;;;;;;;8.30;6.20;;;;;;;;;;5033045;28;20570;-78
2021/09/02 01:38:58;;;;;;;10.07;7.37;;;;;;;;;;5031602;28;20224;-78
2021/09/02 01:41:26;;;;;;;8.20;6.57;;;;;;;;;;5031583;28;20200;-77
2021/09/02 01:43:53;;;;;;;7.93;6.07;;;;;;;;;;5032830;28;20212;-78
2021/09/02 01:46:20;;;;;;;8.50;6.20;;;;;;;;;;5031305;28;20746;-79
2021/09/02 01:48:46;;;;;;;8.67;6.47;;;;;;;;;;5032686;28;20239;-77
2021/09/02 01:51:13;;;;;;;9.63;6.40;;;;;;;;;;5032582;28;20600;-78
2021/09/02 01:53:40;;;;;;;9.97;6.43;;;;;;;;;;5031204;28;20228;-77
2021/09/02 01:56:06;;;;;;;8.23;6.70;;;;;;;;;;5032361;28;20297;-78
2021/09/02 01:58:34;;;;;;;7.03;6.37;;;;;;;;;;5032466;28;20200;-77
2021/09/02 02:01:01;;;;;;;11.57;6.63;;;;;;;;;;5032829;28;20228;-77
2021/09/02 02:03:27;;;;;;;7.80;6.17;;;;;;;;;;5032495;28;20242;-77
2021/09/02 02:05:54;;;;;;;9.33;6.70;;;;;;;;;;5030815;28;20232;-79
2021/09/02 02:08:21;;;;;;;9.10;6.43;;;;;;;;;;5032588;28;20301;-77
2021/09/02 02:10:47;;;;;;;8.93;7.07;;;;;;;;;;5031918;28;20256;-77
2021/09/02 02:13:14;;;;;;;8.03;6.67;;;;;;;;;;5032279;28;20236;-77
2021/09/02 02:15:42;;;;;;;11.67;6.60;;;;;;;;;;5032256;28;20211;-78
2021/09/02 02:18:09;;;;;;;8.23;6.57;;;;;;;;;;5031873;28;20275;-79
2021/09/02 02:20:36;;;;;;;9.40;6.10;;;;;;;;;;5032506;28;20580;-77
2021/09/02 02:23:02;;;;;;;9.90;6.23;;;;;;;;;;5031978;28;20204;-77
2021/09/02 02:25:29;;;;;;;7.90;6.33;;;;;;;;;;5030655;28;20236;-77
2021/09/02 02:27:56;;;;;;;8.23;6.20;;;;;;;;;;5030647;28;20267;-77
2021/09/02 02:30:23;;;;;;;10.57;6.60;;;;;;;;;;5030610;28;20227;-76
2021/09/02 02:32:52;;;;;;;10.10;6.63;;;;;;;;;;5029358;28;20200;-78
2021/09/02 02:35:19;;;;;;;8.30;6.80;;;;;;;;;;5032126;28;20204;-76
2021/09/02 02:37:46;;;;;;;8.67;7.00;;;;;;;;;;5030360;28;20680;-77
2021/09/02 02:40:13;;;;;;;10.90;6.23;;;;;;;;;;5031363;28;20246;-77
2021/09/02 02:42:40;;;;;;;7.97;6.40;;;;;;;;;;5031776;28;20660;-77
2021/09/02 02:45:07;;;;;;;7.73;6.50;;;;;;;;;;5030039;28;20237;-77
2021/09/02 02:47:34;;;;;;;7.67;6.13;;;;;;;;;;5031370;28;20239;-77
2021/09/02 02:50:02;;;;;;;8.10;6.87;;;;;;;;;;5030579;28;20825;-77
2021/09/02 02:52:29;;;;;;;7.83;6.63;;;;;;;;;;5031317;28;20251;-77
2021/09/02 02:54:55;;;;;;;6.87;5.97;;;;;;;;;;5031560;28;20226;-76
2021/09/02 02:57:22;;;;;;;7.20;6.23;;;;;;;;;;5030035;28;20660;-77
2021/09/02 02:59:49;;;;;;;8.40;6.47;;;;;;;;;;5031478;28;20207;-77
2021/09/02 03:02:15;;;;;;;8.57;6.77;;;;;;;;;;5031317;28;20204;-77
2021/09/02 03:04:42;;;;;;;8.80;6.60;;;;;;;;;;5030129;28;20228;-79
2021/09/02 03:07:10;;;;;;;8.63;6.90;;;;;;;;;;5029988;28;20273;-76
2021/09/02 03:09:37;;;;;;;8.20;6.17;;;;;;;;;;5031730;28;20203;-79
2021/09/02 03:12:03;;;;;;;9.27;7.23;;;;;;;;;;5031223;28;20235;-76
2021/09/02 03:14:30;;;;;;;8.03;6.83;;;;;;;;;;5029678;28;20240;-76
2021/09/02 03:16:57;;;;;;;7.23;6.53;;;;;;;;;;5031714;28;20840;-76
2021/09/02 03:19:23;;;;;;;7.67;5.87;;;;;;;;;;5031516;28;20228;-76
2021/09/02 03:21:50;;;;;;;7.40;6.63;;;;;;;;;;5031326;28;20206;-76
2021/09/02 03:24:18;;;;;;;7.60;6.70;;;;;;;;;;5031090;28;20242;-78
2021/09/02 03:26:44;;;;;;;9.37;6.87;;;;;;;;;;5031027;28;20223;-75
2021/09/02 03:29:11;;;;;;;9.60;6.30;;;;;;;;;;5029579;28;20240;-75
2021/09/02 03:31:38;;;;;;;9.47;7.03;;;;;;;;;;5029944;28;20236;-75
2021/09/02 03:34:04;;;;;;;8.13;6.77;;;;;;;;;;5030986;28;20579;-77
2021/09/02 03:36:31;;;;;;;10.93;6.67;;;;;;;;;;5031089;28;20244;-76
2021/09/02 03:38:58;;;;;;;8.97;6.50;;;;;;;;;;5030975;28;20718;-76
2021/09/02 03:41:26;;;;;;;8.67;6.77;;;;;;;;;;5029163;28;20223;-77
2021/09/02 03:43:52;;;;;;;10.43;6.67;;;;;;;;;;5029654;28;20243;-77
2021/09/02 03:46:19;;;;;;;7.97;6.10;;;;;;;;;;5029837;28;20231;-75
2021/09/02 03:48:45;;;;;;;9.30;6.90;;;;;;;;;;5030830;28;20236;-76
2021/09/02 03:51:12;;;;;;;6.80;6.10;;;;;;;;;;5034840;28;20268;-76
2021/09/02 03:53:39;;;;;;;7.33;6.30;;;;;;;;;;5034716;28;20228;-75
2021/09/02 03:56:05;;;;;;;6.73;6.00;;;;;;;;;;5033303;28;20204;-76
2021/09/02 03:58:33;;;;;;;7.83;6.23;;;;;;;;;;5033476;28;20223;-77
2021/09/02 04:01:00;;;;;;;9.30;6.40;;;;;;;;;;5034657;28;20565;-76
2021/09/02 04:03:27;;;;;;;7.77;6.00;;;;;;;;;;5033345;28;20227;-75
2021/09/02 04:05:53;;;;;;;8.30;6.30;;;;;;;;;;5033092;28;20200;-76
2021/09/02 04:08:20;;;;;;;7.07;6.37;;;;;;;;;;5034615;28;20212;-74
2021/09/02 04:10:47;;;;;;;8.43;6.47;;;;;;;;;;5034563;28;20208;-75
2021/09/02 04:13:13;;;;;;;8.83;6.80;;;;;;;;;;5034292;28;20263;-75
2021/09/02 04:15:41;;;;;;;8.40;6.50;;;;;;;;;;5032707;28;20285;-75
2021/09/02 04:18:08;;;;;;;17.00;7.30;;;;;;;;;;5034249;28;20211;-76
2021/09/02 04:20:34;;;;;;;7.50;6.23;;;;;;;;;;5034474;28;20240;-77
2021/09/02 04:23:01;;;;;;;9.67;6.90;;;;;;;;;;5034368;28;20204;-76
2021/09/02 04:25:28;;;;;;;9.17;6.60;;;;;;;;;;5034467;28;20246;-76
2021/09/02 04:27:54;;;;;;;7.97;6.23;;;;;;;;;;5032745;28;20263;-75
2021/09/02 04:30:21;;;;;;;9.57;6.20;;;;;;;;;;5034044;28;20212;-75
2021/09/02 04:32:49;;;;;;;9.63;6.97;;;;;;;;;;5032612;28;20251;-75
2021/09/02 04:35:16;;;;;;;8.60;6.80;;;;;;;;;;5032748;28;20204;-76
2021/09/02 04:37:45;;;;;;;10.67;6.97;;;;;;;;;;5032816;28;20200;-76
2021/09/02 04:40:12;;;;;;;11.70;7.00;;;;;;;;;;5032710;28;20224;-76
2021/09/02 04:42:39;;;;;;;9.77;6.70;;;;;;;;;;5034116;28;20242;-76
2021/09/02 04:45:07;;;;;;;7.37;6.67;;;;;;;;;;5033989;28;20212;-76
2021/09/02 04:47:33;;;;;;;8.27;6.77;;;;;;;;;;5032315;28;20239;-76
2021/09/02 04:50:01;;;;;;;7.23;6.53;;;;;;;;;;5033789;28;20558;-77
2021/09/02 04:52:28;;;;;;;11.87;7.43;;;;;;;;;;5032394;28;20257;-75
2021/09/02 04:54:55;;;;;;;8.03;6.57;;;;;;;;;;5032046;28;20281;-79
2021/09/02 04:57:22;;;;;;;19.83;7.40;;;;;;;;;;5033826;28;20242;-76
2021/09/02 04:59:49;;;;;;;11.47;7.33;;;;;;;;;;5033691;28;20219;-75
2021/09/02 05:02:16;;;;;;;8.53;6.73;;;;;;;;;;5031836;28;20227;-76
2021/09/02 05:04:42;;;;;;;8.43;6.83;;;;;;;;;;5032174;28;20192;-76
2021/09/02 05:07:11;;;;;;;8.33;6.90;;;;;;;;;;5033506;28;20205;-77
2021/09/02 05:09:38;;;;;;;8.20;6.67;;;;;;;;;;5033712;28;20649;-79
2021/09/02 05:12:04;;;;;;;9.27;6.97;;;;;;;;;;5031986;28;20254;-79
2021/09/02 05:14:31;;;;;;;12.30;7.27;;;;;;;;;;5032214;28;20224;-79
2021/09/02 05:16:58;;;;;;;11.07;7.77;;;;;;;;;;5031920;28;20277;-78
2021/09/02 05:19:24;;;;;;;9.07;6.47;;;;;;;;;;5031455;28;20293;-78
2021/09/02 05:21:51;;;;;;;10.73;7.37;;;;;;;;;;5033447;28;20855;-76
2021/09/02 05:24:19;;;;;;;7.53;6.73;;;;;;;;;;5032018;28;20599;-79
2021/09/02 05:26:46;;;;;;;10.63;7.03;;;;;;;;;;5033480;28;20208;-79
2021/09/02 05:29:12;;;;;;;7.77;6.97;;;;;;;;;;5031123;28;20236;-76
2021/09/02 05:31:39;;;;;;;8.87;6.83;;;;;;;;;;5031561;28;20235;-77
2021/09/02 05:34:06;;;;;;;9.97;7.20;;;;;;;;;;5033065;28;20611;-77
2021/09/02 05:36:32;;;;;;;12.17;6.80;;;;;;;;;;5031732;28;20215;-76
2021/09/02 05:38:59;;;;;;;11.13;7.40;;;;;;;;;;5031616;28;20668;-76
2021/09/02 05:41:27;;;;;;;10.30;8.00;;;;;;;;;;5031785;28;20212;-79
2021/09/02 05:43:54;;;;;;;12.77;7.03;;;;;;;;;;5033019;28;20204;-77
2021/09/02 05:46:20;;;;;;;11.13;7.30;;;;;;;;;;5031084;28;21062;-76
2021/09/02 05:48:47;;;;;;;9.50;7.10;;;;;;;;;;5031528;28;20204;-80
2021/09/02 05:51:14;;;;;;;9.93;6.90;;;;;;;;;;5031345;28;20302;-77
2021/09/02 05:53:40;;;;;;;8.57;6.90;;;;;;;;;;5032251;28;20252;-78
2021/09/02 05:56:07;;;;;;;12.40;6.90;;;;;;;;;;5031416;28;20180;-76
2021/09/02 05:58:35;;;;;;;9.13;7.10;;;;;;;;;;5032990;28;20251;-77
2021/09/02 06:01:02;;;;;;;8.67;7.17;;;;;;;;;;5031046;28;20242;-77
2021/09/02 06:03:28;;;;;;;8.77;6.93;;;;;;;;;;5032241;28;20208;-76
2021/09/02 06:05:55;;;;;;;10.20;7.77;;;;;;;;;;5032382;28;20212;-76
2021/09/02 06:08:22;;;;;;;10.63;6.90;;;;;;;;;;5032426;28;20219;-75
2021/09/02 06:10:49;;;;;;;14.20;6.93;;;;;;;;;;5031643;28;20247;-75
2021/09/02 06:13:15;;;;;;;10.33;8.07;;;;;;;;;;5030052;28;20290;-77
2021/09/02 06:15:43;;;;;;;8.47;7.17;;;;;;;;;;5032050;28;20601;-76
2021/09/02 06:18:10;;;;;;;12.43;7.20;;;;;;;;;;5030133;28;20624;-77
2021/09/02 06:20:37;;;;;;;9.43;7.43;;;;;;;;;;5029959;28;20227;-76
2021/09/02 06:23:04;;;;;;;11.27;7.47;;;;;;;;;;5031614;28;20239;-76
2021/09/02 06:25:30;;;;;;;12.60;7.40;;;;;;;;;;5031576;28;20235;-76
2021/09/02 06:27:57;;;;;;;11.73;8.10;;;;;;;;;;5030147;28;20313;-77
2021/09/02 06:30:24;;;;;;;11.30;7.70;;;;;;;;;;5030226;28;20224;-76
2021/09/02 06:32:52;;;;;;;9.17;7.77;;;;;;;;;;5031547;28;20227;-77
2021/09/02 06:35:19;;;;;;;9.53;7.03;;;;;;;;;;5030180;28;20193;-77
2021/09/02 06:37:45;;;;;;;10.23;7.23;;;;;;;;;;5030606;28;20234;-77
2021/09/02 06:40:12;;;;;;;15.47;7.50;;;;;;;;;;5030098;28;20672;-76
2021/09/02 06:42:39;;;;;;;8.30;7.50;;;;;;;;;;5030148;28;20728;-77
2021/09/02 06:45:06;;;;;;;8.40;7.50;;;;;;;;;;5029912;28;20216;-76
2021/09/02 06:47:33;;;;;;;12.33;7.67;;;;;;;;;;5030987;28;20247;-76
2021/09/02 06:50:01;;;;;;;9.10;8.10;;;;;;;;;;5029812;28;20314;-77
2021/09/02 06:52:28;;;;;;;10.43;7.67;;;;;;;;;;5029509;28;20267;-78
2021/09/02 06:54:54;;;;;;;9.67;8.27;;;;;;;;;;5030331;28;20228;-77
2021/09/02 06:57:21;;;;;;;9.57;7.70;;;;;;;;;;5030183;28;20227;-76
2021/09/02 06:59:48;;;;;;;12.77;7.50;;;;;;;;;;5031349;28;20208;-78
2021/09/02 07:02:14;;;;;;;8.67;7.10;;;;;;;;;;5030154;28;20278;-77
2021/09/02 07:04:41;;;;;;;10.07;7.63;;;;;;;;;;5031638;28;20243;-77
2021/09/02 07:07:09;;;;;;;9.40;7.27;;;;;;;;;;5029900;28;20581;-77
2021/09/02 07:09:35;;;;;;;8.93;7.30;;;;;;;;;;5031406;28;20200;-78
2021/09/02 07:12:03;;;;;;;13.43;7.70;;;;;;;;;;5030112;28;20266;-78
2021/09/02 07:14:29;;;;;;;9.17;7.20;;;;;;;;;;5030153;28;20670;-77
2021/09/02 07:16:56;;;;;;;7.97;7.20;;;;;;;;;;5030159;28;20645;-78
2021/09/02 07:19:23;;;;;;;10.13;6.97;;;;;;;;;;5029994;28;20227;-78
2021/09/02 07:21:49;;;;;;;9.67;7.17;;;;;;;;;;5031476;28;20238;-77
2021/09/02 07:24:17;;;;;;;8.90;7.43;;;;;;;;;;5031667;28;20265;-78
2021/09/02 07:26:44;;;;;;;11.43;7.80;;;;;;;;;;5034143;28;20208;-77
2021/09/02 07:29:11;;;;;;;8.93;7.60;;;;;;;;;;5033593;28;20251;-78
2021/09/02 07:31:39;;;;;;;8.77;7.27;;;;;;;;;;5033963;28;20597;-77
2021/09/02 07:34:05;;;;;;;11.90;7.70;;;;;;;;;;5033480;28;20338;-77
2021/09/02 07:36:32;;;;;;;13.40;7.13;;;;;;;;;;5034264;28;20553;-78
2021/09/02 07:38:59;;;;;;;12.30;7.83;;;;;;;;;;5035270;28;20208;-78
2021/09/02 07:41:27;;;;;;;10.90;7.47;;;;;;;;;;5033837;28;20564;-77
2021/09/02 07:43:54;;;;;;;8.63;7.30;;;;;;;;;;5033784;28;20196;-78
2021/09/02 07:46:20;;;;;;;9.50;8.03;;;;;;;;;;5033064;28;20358;-78
2021/09/02 07:48:47;;;;;;;15.40;7.30;;;;;;;;;;5033432;28;20208;-77
2021/09/02 07:51:14;;;;;;;9.70;7.20;;;;;;;;;;5033430;28;20305;-78
2021/09/02 07:53:40;;;;;;;10.03;7.20;;;;;;;;;;5035023;28;20243;-78
2021/09/02 07:56:07;;;;;;;8.20;7.40;;;;;;;;;;5034369;28;20216;-77
2021/09/02 07:58:36;;;;;;;11.07;7.67;;;;;;;;;;5033907;28;20546;-79
2021/09/02 08:01:02;;;;;;;9.90;7.80;;;;;;;;;;5033060;28;20239;-78
2021/09/02 08:03:29;;;;;;;10.03;7.87;;;;;;;;;;5033453;28;20216;-78
2021/09/02 08:05:56;;;;;;;11.67;8.07;;;;;;;;;;5033464;28;20226;-78
2021/09/02 08:08:22;;;;;;;11.97;7.30;;;;;;;;;;5032871;28;20271;-78
2021/09/02 08:10:50;;;;;;;11.83;7.90;;;;;;;;;;5034719;28;20236;-77
2021/09/02 08:13:16;;;;;;;10.47;7.10;;;;;;;;;;5033030;28;20313;-76
2021/09/02 08:15:44;;;;;;;12.60;7.27;;;;;;;;;;5033214;28;20223;-77
2021/09/02 08:18:11;;;;;;;14.20;7.67;;;;;;;;;;5032775;28;20228;-77
2021/09/02 08:20:38;;;;;;;11.93;7.40;;;;;;;;;;5033428;28;20262;-79
2021/09/02 08:23:05;;;;;;;12.93;7.70;;;;;;;;;;5033657;28;20648;-78
2021/09/02 08:25:32;;;;;;;8.33;7.33;;;;;;;;;;5033618;28;20649;-77
2021/09/02 08:27:59;;;;;;;9.50;6.97;;;;;;;;;;5039197;28;20254;-78
2021/09/02 08:30:27;;;;;;;11.57;7.50;;;;;;;;;;5054577;28;20616;-78
2021/09/02 08:32:55;;;;;;;11.93;7.80;;;;;;;;;;5036641;28;20614;-79
2021/09/02 08:35:23;;;;;;;17.23;7.43;;;;;;;;;;5035502;28;20277;-78
2021/09/02 08:37:50;;;;;;;9.97;7.50;;;;;;;;;;5054083;28;20239;-78
2021/09/02 08:40:18;;;;;;;8.27;6.43;;;;;;;;;;5054477;28;20199;-77
2021/09/02 08:42:46;;;;;;;9.97;7.17;;;;;;;;;;5054652;28;20214;-78
2021/09/02 08:45:12;;;;;;;8.40;6.90;;;;;;;;;;5054464;28;20199;-78
2021/09/02 08:47:40;;;;;;;13.93;6.50;;;;;;;;;;5036389;28;20211;-78
2021/09/02 08:50:09;;;;;;;7.87;5.97;;;;;;;;;;5053998;28;20262;-77
2021/09/02 08:52:35;;;;;;;10.50;6.60;;;;;;;;;;5035953;28;20237;-78
2021/09/02 08:55:02;;;;;;;8.17;6.53;;;;;;;;;;5035769;28;20629;-77
2021/09/02 08:57:29;;;;;;;10.03;6.43;;;;;;;;;;5053676;28;20243;-78
2021/09/02 08:59:56;;;;;;;11.53;5.90;;;;;;;;;;5054140;28;20203;-78
2021/09/02 09:02:23;;;;;;;6.27;5.63;;;;;;;;;;5035921;28;20559;-79
2021/09/02 09:04:59;;;;;;;8.67;5.60;;;;;;;;;;5053677;28;20231;-78
2021/09/02 09:07:29;;;;;;;9.43;5.70;;;;;;;;;;5053357;28;20682;-77
2021/09/02 09:09:55;;;;;;;10.00;6.00;;;;;;;;;;5035682;28;20271;-78
2021/09/02 09:12:31;;;;;;;8.33;5.10;;;;;;;;;;5035237;28;20713;-80
2021/09/02 09:14:58;;;;;;;5.87;4.97;;;;;;;;;;5053646;28;20254;-79
2021/09/02 09:17:25;;;;;;;8.43;5.50;;;;;;;;;;5035510;28;20200;-79
2021/09/02 09:19:53;;;;;;;7.10;5.07;;;;;;;;;;5035636;28;20199;-79
2021/09/02 09:22:20;;;;;;;5.60;5.07;;;;;;;;;;5053479;28;20218;-80
2021/09/02 09:24:50;;;;;;;5.80;5.20;;;;;;;;;;5035384;28;20531;-80
2021/09/02 09:27:17;;;;;;;5.93;5.20;;;;;;;;;;5053274;28;20243;-79
2021/09/02 09:29:44;;;;;;;6.47;4.85;;;;;;;;;;5032176;28;20270;-79
2021/09/02 09:32:12;;;;;;;5.20;4.70;;;;;;;;;;5033685;28;20215;-79
2021/09/02 09:34:47;;;;;;;5.72;4.90;;;;;;;;;;5031764;28;20267;-79
2021/09/02 09:37:14;;;;;;;5.30;4.80;;;;;;;;;;5031801;28;20507;-79
2021/09/02 09:39:43;;;;;;;8.03;4.90;;;;;;;;;;5031855;28;20255;-80
2021/09/02 09:42:12;;;;;;;5.63;4.85;;;;;;;;;;5031954;28;20239;-78
2021/09/02 09:44:39;;;;;;;6.22;4.90;;;;;;;;;;5033542;28;20205;-80
2021/09/02 09:47:10;;;;;;;5.78;5.00;;;;;;;;;;5032221;28;20243;-80
2021/09/02 09:49:47;;;;;;;4.95;4.55;;;;;;;;;;5033006;28;20589;-80
2021/09/02 09:52:18;;;;;;;5.60;5.10;;;;;;;;;;5031713;28;20216;-80
2021/09/02 09:54:45;;;;;;;5.22;4.68;;;;;;;;;;5031697;28;20619;-79
2021/09/02 09:57:14;;;;;;;5.05;4.55;;;;;;;;;;5033078;28;20208;-79
2021/09/02 09:59:41;;;;;;;5.72;5.13;;;;;;;;;;5032904;28;20227;-79
2021/09/02 10:02:08;;;;;;;7.82;5.00;;;;;;;;;;5032991;28;20246;-78
2021/09/02 10:04:35;;;;;;;4.60;4.20;;;;;;;;;;5032704;28;20222;-77
2021/09/02 10:07:04;;;;;;;5.15;4.75;;;;;;;;;;5032612;28;20215;-80
2021/09/02 10:09:32;;;;;;;6.28;4.60;;;;;;;;;;5031590;28;20242;-80
2021/09/02 10:11:59;;;;;;;4.93;4.43;;;;;;;;;;5033324;28;20696;-80
2021/09/02 10:14:27;;;;;;;8.57;4.88;;;;;;;;;;5031074;28;20686;-81
2021/09/02 10:16:54;;;;;;;4.88;4.45;;;;;;;;;;5032254;28;20244;-79
2021/09/02 10:19:22;;;;;;;5.05;4.55;;;;;;;;;;5030558;28;20232;-81
2021/09/02 10:21:51;;;;;;;4.55;4.15;;;;;;;;;;5031050;28;20207;-80
2021/09/02 10:24:30;;;;;;;4.80;3.80;;;;;;;;;;5030715;28;20204;-82
2021/09/02 10:26:57;;;;;;;3.70;3.50;;;;;;;;;;5030488;28;20273;-84
2021/09/02 10:29:34;;;;;;;6.03;4.13;;;;;;;;;;5048556;28;20258;-81
2021/09/02 10:32:20;;;;;;;5.47;3.80;;;;;;;;;;5034208;28;20241;-80
2021/09/02 10:34:46;;;;;;;5.07;3.78;;;;;;;;;;5052052;28;20255;-80
2021/09/02 10:37:36;;;;;;;3.75;3.45;;;;;;;;;;5052682;28;20660;-83
2021/09/02 10:40:04;;;;;;;4.40;4.00;;;;;;;;;;5033678;28;20195;-83
2021/09/02 10:42:41;;;;;;;3.67;3.38;;;;;;;;;;5033743;28;20567;-84
2021/09/02 10:45:30;;;;;;;4.07;3.70;;;;;;;;;;5034008;28;20183;-81
2021/09/02 10:47:57;;;;;;;4.63;3.63;;;;;;;;;;5033429;28;20203;-82
2021/09/02 10:50:26;;;;;;;3.85;3.55;;;;;;;;;;5051799;28;20219;-81
2021/09/02 10:52:53;;;;;;;3.70;3.40;;;;;;;;;;5033351;28;20246;-82
2021/09/02 10:55:27;;;;;;;4.78;3.72;;;;;;;;;;5033426;28;20235;-82
2021/09/02 10:57:53;;;;;;;3.83;3.55;;;;;;;;;;5051542;28;20702;-81
2021/09/02 11:00:33;;;;;;;3.80;3.50;;;;;;;;;;5051725;28;20210;-80
2021/09/02 11:03:12;;;;;;;5.22;3.65;;;;;;;;;;5033881;28;20203;-79
2021/09/02 11:05:38;;;;;;;4.57;3.83;;;;;;;;;;5051547;28;20238;-80
2021/09/02 11:08:05;;;;;;;3.53;3.20;;;;;;;;;;5051527;28;20245;-79
2021/09/02 11:10:32;;;;;;;3.42;3.20;;;;;;;;;;5033691;28;20249;-80
2021/09/02 11:13:00;;;;;;;3.67;3.38;;;;;;;;;;5033560;28;20263;-79
2021/09/02 11:15:27;;;;;;;3.40;3.20;;;;;;;;;;5051164;28;20259;-80
2021/09/02 11:17:56;;;;;;;4.47;3.35;;;;;;;;;;5051532;28;20183;-79
2021/09/02 11:20:23;;;;;;;5.05;3.22;;;;;;;;;;5051843;28;20635;-81
2021/09/02 11:22:50;;;;;;;4.07;3.58;;;;;;;;;;5051480;28;20705;-80
2021/09/02 11:25:17;;;;;;;3.72;3.42;;;;;;;;;;5051294;28;20204;-81
2021/09/02 11:27:45;;;;;;;3.78;3.40;;;;;;;;;;5033115;28;20207;-80
2021/09/02 11:30:12;;;;;;;4.80;3.45;;;;;;;;;;5033450;28;20217;-80
2021/09/02 11:32:39;;;;;;;4.97;3.47;;;;;;;;;;5033484;28;20697;-80
2021/09/02 11:35:08;;;;;;;3.95;3.60;;;;;;;;;;5050995;28;20247;-81
2021/09/02 11:37:38;;;;;;;3.50;3.20;;;;;;;;;;5033217;28;20242;-81
2021/09/02 11:40:06;;;;;;;3.75;3.50;;;;;;;;;;5032395;28;20608;-81
2021/09/02 11:42:33;;;;;;;3.50;3.20;;;;;;;;;;5033454;28;20608;-80
2021/09/02 11:45:00;;;;;;;3.20;3.00;;;;;;;;;;5051635;28;20176;-81
2021/09/02 11:47:33;;;;;;;3.60;3.30;;;;;;;;;;5051303;28;20539;-81
2021/09/02 11:50:00;;;;;;;4.40;3.25;;;;;;;;;;5032940;28;20251;-80
2021/09/02 11:52:38;;;;;;;5.03;3.33;;;;;;;;;;5051157;28;20242;-81
2021/09/02 11:55:06;;;;;;;4.50;3.22;;;;;;;;;;5032911;28;20239;-81
2021/09/02 11:57:33;;;;;;;3.17;2.97;;;;;;;;;;5051573;28;20632;-82
2021/09/02 11:59:59;;;;;;;5.53;3.50;;;;;;;;;;5051076;28;20629;-81
2021/09/02 12:02:26;;;;;;;3.90;3.60;;;;;;;;;;5051341;28;20214;-82
2021/09/02 12:04:54;;;;;;;3.70;3.40;;;;;;;;;;5051092;28;20231;-82
2021/09/02 12:07:20;;;;;;;3.58;3.38;;;;;;;;;;5033197;28;20191;-81
2021/09/02 12:09:50;;;;;;;4.90;3.40;;;;;;;;;;5052377;28;20288;-80
2021/09/02 12:12:34;;;;;;;4.07;3.45;;;;;;;;;;5054826;28;20242;-80
2021/09/02 12:15:01;;;;;;;3.15;2.95;;;;;;;;;;5037120;28;20242;-81
2021/09/02 12:17:31;;;;;;;4.03;3.28;;;;;;;;;;5036837;28;20215;-82
2021/09/02 12:19:59;;;;;;;4.75;3.72;;;;;;;;;;5036283;28;20207;-81
2021/09/02 12:22:30;;;;;;;3.97;3.67;;;;;;;;;;5054644;28;20246;-81
2021/09/02 12:25:07;;;;;;;3.75;3.50;;;;;;;;;;5036513;28;20536;-85
2021/09/02 12:27:40;;;;;;;4.30;3.90;;;;;;;;;;5036291;28;20828;-81
2021/09/02 12:30:07;;;;;;;3.92;3.45;;;;;;;;;;5037045;28;20747;-87
2021/09/02 12:32:34;;;;;;;3.65;3.38;;;;;;;;;;5055748;28;20563;-86
2021/09/02 12:35:10;;;;;;;4.50;3.08;;;;;;;;;;5054479;28;20238;-86
2021/09/02 12:37:38;;;;;;;3.95;3.55;;;;;;;;;;5054727;28;20211;-89
2021/09/02 12:40:11;;;;;;;3.65;3.30;;;;;;;;;;5041605;28;20204;-90
2021/09/02 12:42:39;;;;;;;3.70;3.42;;;;;;;;;;5037796;28;20199;-89
2021/09/02 12:45:07;;;;;;;5.07;3.60;;;;;;;;;;5037388;28;20210;-88
2021/09/02 12:47:34;;;;;;;3.85;3.63;;;;;;;;;;5055328;28;20218;-85
2021/09/02 12:50:01;;;;;;;4.95;3.72;;;;;;;;;;5036779;28;20761;-86
2021/09/02 12:52:29;;;;;;;4.18;3.22;;;;;;;;;;5038460;28;20199;-87
2021/09/02 12:55:03;;;;;;;4.03;3.55;;;;;;;;;;5037377;28;20204;-85
2021/09/02 12:57:30;;;;;;;4.13;3.83;;;;;;;;;;5036133;28;20234;-87
2021/09/02 12:59:58;;;;;;;3.97;3.58;;;;;;;;;;5038572;28;20188;-92
2021/09/02 13:02:25;;;;;;;4.03;3.70;;;;;;;;;;5054959;28;20238;-86
2021/09/02 13:04:52;;;;;;;5.22;4.00;;;;;;;;;;5055059;28;20211;-87
2021/09/02 13:07:18;;;;;;;3.60;3.40;;;;;;;;;;5036865;28;20237;-83
2021/09/02 13:09:45;;;;;;;5.70;3.72;;;;;;;;;;5037204;28;20199;-86
2021/09/02 13:12:12;;;;;;;4.10;3.80;;;;;;;;;;5038032;28;20210;-88
2021/09/02 13:14:38;;;;;;;4.05;3.70;;;;;;;;;;5037278;28;20211;-88
2021/09/02 13:17:06;;;;;;;3.58;3.28;;;;;;;;;;5056644;28;20207;-89
2021/09/02 13:19:33;;;;;;;3.92;3.58;;;;;;;;;;5037566;28;20203;-88
2021/09/02 13:22:00;;;;;;;3.63;3.33;;;;;;;;;;5056607;28;20222;-89
2021/09/02 13:24:26;;;;;;;3.78;3.45;;;;;;;;;;5055572;28;20594;-88
2021/09/02 13:26:53;;;;;;;4.05;3.75;;;;;;;;;;5036124;28;20200;-84
2021/09/02 13:29:20;;;;;;;4.15;3.85;;;;;;;;;;5031913;28;20773;-83
2021/09/02 13:31:46;;;;;;;3.55;3.30;;;;;;;;;;5032024;28;20235;-86
2021/09/02 13:34:14;;;;;;;3.60;3.30;;;;;;;;;;5031446;28;20227;-84
2021/09/02 13:36:41;;;;;;;3.92;3.50;;;;;;;;;;5034207;28;20596;-89
2021/09/02 13:39:08;;;;;;;4.10;3.70;;;;;;;;;;5032748;28;20254;-87
2021/09/02 13:41:35;;;;;;;3.47;3.28;;;;;;;;;;5032983;28;20683;-86
2021/09/02 13:44:02;;;;;;;3.80;3.50;;;;;;;;;;5033379;28;20684;-87
2021/09/02 13:46:29;;;;;;;4.72;3.72;;;;;;;;;;5033574;28;20668;-87
2021/09/02 13:48:55;;;;;;;3.63;3.42;;;;;;;;;;5032280;28;20236;-86
2021/09/02 13:51:23;;;;;;;3.60;3.40;;;;;;;;;;5033331;28;20239;-86
2021/09/02 13:53:50;;;;;;;4.45;3.42;;;;;;;;;;5032097;28;20458;-90
2021/09/02 13:56:17;;;;;;;3.22;3.03;;;;;;;;;;5034954;28;20263;-88
2021/09/02 13:58:43;;;;;;;3.53;3.28;;;;;;;;;;5034229;28;20216;-88
2021/09/02 14:01:10;;;;;;;3.50;3.30;;;;;;;;;;5033659;28;20219;-89
2021/09/02 14:03:36;;;;;;;3.45;3.25;;;;;;;;;;5034042;28;20212;-89
2021/09/02 14:06:03;;;;;;;4.65;3.45;;;;;;;;;;5033765;28;20216;-89
2021/09/02 14:08:31;;;;;;;3.42;3.20;;;;;;;;;;5033290;28;20244;-85
2021/09/02 14:10:58;;;;;;;3.25;3.05;;;;;;;;;;5031743;28;20220;-90
2021/09/02 14:13:24;;;;;;;4.45;3.75;;;;;;;;;;5032784;28;20199;-88
2021/09/02 14:15:51;;;;;;;3.47;3.17;;;;;;;;;;5032009;28;20692;-86
2021/09/02 14:18:18;;;;;;;3.60;3.40;;;;;;;;;;5031471;28;20239;-87
2021/09/02 14:20:45;;;;;;;3.67;3.47;;;;;;;;;;5032810;28;20207;-88
2021/09/02 14:23:11;;;;;;;3.20;3.00;;;;;;;;;;5031760;28;20204;-86
2021/09/02 14:25:39;;;;;;;3.58;3.28;;;;;;;;;;5032809;28;20180;-87
2021/09/02 14:28:06;;;;;;;11.02;3.33;;;;;;;;;;5037813;28;20250;-88
2021/09/02 14:30:33;;;;;;;5.18;3.33;;;;;;;;;;5034754;28;20199;-85
2021/09/02 14:32:59;;;;;;;4.70;3.58;;;;;;;;;;5052260;28;20654;-83
2021/09/02 14:35:26;;;;;;;4.68;3.05;;;;;;;;;;5034402;28;20226;-83
2021/09/02 14:37:54;;;;;;;3.35;3.15;;;;;;;;;;5033478;28;20203;-81
2021/09/02 14:40:21;;;;;;;2.97;2.88;;;;;;;;;;5034316;28;20199;-84
2021/09/02 14:42:49;;;;;;;3.38;3.17;;;;;;;;;;5052204;28;20179;-82